File backup.txt content, last update Tuesday January 26 2021, 16:21:19


1611672127 Temp=0.82*C Humidity=74.89% Pressure=99919.09Pa
1611672186 Temp=0.83*C Humidity=74.93% Pressure=99925.21Pa
1611672246 Temp=0.84*C Humidity=74.92% Pressure=99924.92Pa
1611672306 Temp=0.85*C Humidity=74.96% Pressure=99922.23Pa
1611672366 Temp=0.87*C Humidity=74.98% Pressure=99920.38Pa
1611672426 Temp=0.88*C Humidity=74.99% Pressure=99924.07Pa
1611672486 Temp=0.89*C Humidity=74.97% Pressure=99930.41Pa
1611672547 Temp=0.90*C Humidity=75.02% Pressure=99929.70Pa
1611672606 Temp=0.88*C Humidity=75.02% Pressure=99930.44Pa
1611672666 Temp=0.87*C Humidity=75.01% Pressure=99929.16Pa
1611672726 Temp=0.88*C Humidity=74.99% Pressure=99925.16Pa
1611672786 Temp=0.88*C Humidity=75.01% Pressure=99929.82Pa
1611672847 Temp=0.85*C Humidity=75.08% Pressure=99932.13Pa
1611672906 Temp=0.86*C Humidity=75.05% Pressure=99931.63Pa
1611672966 Temp=0.88*C Humidity=75.07% Pressure=99935.75Pa
1611673026 Temp=0.83*C Humidity=75.25% Pressure=99931.15Pa
1611673086 Temp=0.82*C Humidity=75.22% Pressure=99938.21Pa
1611673147 Temp=0.84*C Humidity=75.17% Pressure=99938.37Pa
1611673206 Temp=0.85*C Humidity=75.15% Pressure=99937.45Pa
1611673266 Temp=0.87*C Humidity=75.17% Pressure=99940.83Pa
1611673326 Temp=0.90*C Humidity=75.18% Pressure=99945.30Pa
1611673386 Temp=0.91*C Humidity=75.22% Pressure=99950.51Pa
1611673446 Temp=0.92*C Humidity=75.22% Pressure=99946.08Pa
1611673506 Temp=0.94*C Humidity=75.20% Pressure=99948.16Pa
1611673566 Temp=0.95*C Humidity=75.18% Pressure=99946.77Pa
1611673626 Temp=0.97*C Humidity=75.18% Pressure=99948.87Pa
1611673686 Temp=0.99*C Humidity=75.17% Pressure=99947.23Pa
1611673747 Temp=1.01*C Humidity=75.17% Pressure=99949.35Pa
1611673806 Temp=1.01*C Humidity=75.19% Pressure=99949.77Pa
1611673867 Temp=1.02*C Humidity=75.13% Pressure=99949.47Pa
1611673926 Temp=1.04*C Humidity=75.08% Pressure=99958.84Pa
1611673986 Temp=1.03*C Humidity=75.10% Pressure=99952.55Pa
1611674046 Temp=1.03*C Humidity=75.06% Pressure=99951.65Pa
1611674106 Temp=1.03*C Humidity=75.05% Pressure=99955.84Pa
1611674166 Temp=1.03*C Humidity=75.04% Pressure=99952.34Pa
1611674226 Temp=1.03*C Humidity=75.02% Pressure=99953.66Pa
1611674286 Temp=1.03*C Humidity=75.02% Pressure=99954.48Pa
1611674346 Temp=1.01*C Humidity=75.02% Pressure=99954.36Pa
1611674406 Temp=0.99*C Humidity=75.06% Pressure=99953.41Pa
1611674466 Temp=0.98*C Humidity=75.06% Pressure=99957.40Pa
Showing last 40 lines from file [/srv/app/pi-web01/chroot/pi-ws02/var/backup.txt] (60 total lines).

Station Logs

File Name
sensor.txt
backup.txt
outage.log
outlier.log
rrd.log
Display Limit